sensor_id;sensor_type;location;lat;lon;timestamp;temperature;humidity
9824;DHT22;4951;50.778;7.196;2023-11-19T00:02:31;10.20;84.80
9824;DHT22;4951;50.778;7.196;2023-11-19T00:05:07;10.20;88.70
9824;DHT22;4951;50.778;7.196;2023-11-19T00:07:40;10.20;83.90
9824;DHT22;4951;50.778;7.196;2023-11-19T00:10:11;10.20;83.70
9824;DHT22;4951;50.778;7.196;2023-11-19T00:12:49;10.20;89.80
9824;DHT22;4951;50.778;7.196;2023-11-19T00:15:22;10.20;85.10
9824;DHT22;4951;50.778;7.196;2023-11-19T00:17:57;10.20;85.10
9824;DHT22;4951;50.778;7.196;2023-11-19T00:20:35;10.20;88.30
9824;DHT22;4951;50.778;7.196;2023-11-19T00:23:06;10.20;91.10
9824;DHT22;4951;50.778;7.196;2023-11-19T00:25:35;10.30;93.10
9824;DHT22;4951;50.778;7.196;2023-11-19T00:28:10;10.20;92.40
9824;DHT22;4951;50.778;7.196;2023-11-19T00:30:49;10.20;92.00
9824;DHT22;4951;50.778;7.196;2023-11-19T00:33:32;10.20;90.90
9824;DHT22;4951;50.778;7.196;2023-11-19T00:36:05;10.20;91.10
9824;DHT22;4951;50.778;7.196;2023-11-19T00:38:37;10.20;91.80
9824;DHT22;4951;50.778;7.196;2023-11-19T00:41:08;10.20;92.30
9824;DHT22;4951;50.778;7.196;2023-11-19T00:43:40;10.20;94.10
9824;DHT22;4951;50.778;7.196;2023-11-19T00:46:37;10.20;96.40
9824;DHT22;4951;50.778;7.196;2023-11-19T00:49:06;10.20;95.50
9824;DHT22;4951;50.778;7.196;2023-11-19T00:51:41;10.10;94.90
9824;DHT22;4951;50.778;7.196;2023-11-19T00:57:56;10.20;99.90
9824;DHT22;4951;50.778;7.196;2023-11-19T01:01:13;10.30;99.90
9824;DHT22;4951;50.778;7.196;2023-11-19T01:04:08;10.30;99.90
9824;DHT22;4951;50.778;7.196;2023-11-19T01:07:23;10.40;99.90
9824;DHT22;4951;50.778;7.196;2023-11-19T01:10:18;10.40;99.90
9824;DHT22;4951;50.778;7.196;2023-11-19T01:14:12;10.40;99.90
9824;DHT22;4951;50.778;7.196;2023-11-19T01:16:55;10.50;99.90
9824;DHT22;4951;50.778;7.196;2023-11-19T01:19:51;10.50;99.90
9824;DHT22;4951;50.778;7.196;2023-11-19T01:22:39;10.50;99.90
9824;DHT22;4951;50.778;7.196;2023-11-19T01:25:15;10.50;99.90
9824;DHT22;4951;50.778;7.196;2023-11-19T01:28:25;10.50;99.90
9824;DHT22;4951;50.778;7.196;2023-11-19T01:31:39;10.50;99.90
9824;DHT22;4951;50.778;7.196;2023-11-19T01:34:42;10.50;99.90
9824;DHT22;4951;50.778;7.196;2023-11-19T01:40:40;10.60;99.90
9824;DHT22;4951;50.778;7.196;2023-11-19T01:43:49;10.60;99.90
9824;DHT22;4951;50.778;7.196;2023-11-19T01:47:10;10.60;99.90
9824;DHT22;4951;50.778;7.196;2023-11-19T01:50:22;10.70;99.90
9824;DHT22;4951;50.778;7.196;2023-11-19T01:53:34;10.70;99.90
9824;DHT22;4951;50.778;7.196;2023-11-19T01:56:15;10.70;99.90
9824;DHT22;4951;50.778;7.196;2023-11-19T01:58:51;10.80;99.90
9824;DHT22;4951;50.778;7.196;2023-11-19T02:01:43;10.80;99.90
9824;DHT22;4951;50.778;7.196;2023-11-19T02:04:20;10.90;99.90
9824;DHT22;4951;50.778;7.196;2023-11-19T02:06:52;10.90;99.90
9824;DHT22;4951;50.778;7.196;2023-11-19T02:09:27;10.90;99.90
9824;DHT22;4951;50.778;7.196;2023-11-19T02:12:04;11.00;99.90
9824;DHT22;4951;50.778;7.196;2023-11-19T02:14:42;11.00;99.90
9824;DHT22;4951;50.778;7.196;2023-11-19T02:17:28;11.00;99.90
9824;DHT22;4951;50.778;7.196;2023-11-19T02:20:00;11.10;99.90
9824;DHT22;4951;50.778;7.196;2023-11-19T02:22:54;11.10;99.90
9824;DHT22;4951;50.778;7.196;2023-11-19T02:25:31;11.10;99.90
9824;DHT22;4951;50.778;7.196;2023-11-19T02:28:06;11.10;99.90
9824;DHT22;4951;50.778;7.196;2023-11-19T02:30:42;11.10;99.90
9824;DHT22;4951;50.778;7.196;2023-11-19T02:33:23;11.10;99.90
9824;DHT22;4951;50.778;7.196;2023-11-19T02:36:00;11.10;99.90
9824;DHT22;4951;50.778;7.196;2023-11-19T02:38:40;11.10;99.90
9824;DHT22;4951;50.778;7.196;2023-11-19T02:41:21;11.10;99.90
9824;DHT22;4951;50.778;7.196;2023-11-19T02:44:07;11.10;99.90
9824;DHT22;4951;50.778;7.196;2023-11-19T02:46:41;11.10;99.90
9824;DHT22;4951;50.778;7.196;2023-11-19T02:49:12;11.10;99.90
9824;DHT22;4951;50.778;7.196;2023-11-19T02:51:46;11.10;99.90
9824;DHT22;4951;50.778;7.196;2023-11-19T02:54:20;11.10;99.90
9824;DHT22;4951;50.778;7.196;2023-11-19T02:56:54;11.10;99.90
9824;DHT22;4951;50.778;7.196;2023-11-19T02:59:30;11.10;99.90
9824;DHT22;4951;50.778;7.196;2023-11-19T03:02:10;11.10;99.90
9824;DHT22;4951;50.778;7.196;2023-11-19T03:04:51;11.10;99.90
9824;DHT22;4951;50.778;7.196;2023-11-19T03:07:36;11.10;99.90
9824;DHT22;4951;50.778;7.196;2023-11-19T03:10:25;11.10;99.90
9824;DHT22;4951;50.778;7.196;2023-11-19T03:13:02;11.10;99.90
9824;DHT22;4951;50.778;7.196;2023-11-19T03:15:43;11.10;99.90
9824;DHT22;4951;50.778;7.196;2023-11-19T03:18:22;11.00;99.90
9824;DHT22;4951;50.778;7.196;2023-11-19T03:20:57;11.00;99.90
9824;DHT22;4951;50.778;7.196;2023-11-19T03:23:40;11.00;99.90
9824;DHT22;4951;50.778;7.196;2023-11-19T03:26:11;11.00;99.90
9824;DHT22;4951;50.778;7.196;2023-11-19T03:28:43;11.00;99.90
9824;DHT22;4951;50.778;7.196;2023-11-19T03:31:17;11.00;99.90
9824;DHT22;4951;50.778;7.196;2023-11-19T03:33:50;10.90;99.90
9824;DHT22;4951;50.778;7.196;2023-11-19T03:36:20;11.00;99.90
9824;DHT22;4951;50.778;7.196;2023-11-19T03:38:52;11.00;99.90
9824;DHT22;4951;50.778;7.196;2023-11-19T03:41:27;11.00;99.90
9824;DHT22;4951;50.778;7.196;2023-11-19T03:44:03;10.90;99.90
9824;DHT22;4951;50.778;7.196;2023-11-19T03:46:43;10.90;99.90
9824;DHT22;4951;50.778;7.196;2023-11-19T03:49:17;10.90;99.90
9824;DHT22;4951;50.778;7.196;2023-11-19T03:51:52;10.80;99.90
9824;DHT22;4951;50.778;7.196;2023-11-19T03:54:27;10.80;99.90
9824;DHT22;4951;50.778;7.196;2023-11-19T03:57:05;10.80;99.90
9824;DHT22;4951;50.778;7.196;2023-11-19T03:59:35;10.80;99.90
9824;DHT22;4951;50.778;7.196;2023-11-19T04:02:10;10.90;99.90
9824;DHT22;4951;50.778;7.196;2023-11-19T04:04:45;11.00;99.90
9824;DHT22;4951;50.778;7.196;2023-11-19T04:07:14;11.00;99.90
9824;DHT22;4951;50.778;7.196;2023-11-19T04:09:45;11.00;99.90
9824;DHT22;4951;50.778;7.196;2023-11-19T04:12:18;11.10;99.90
9824;DHT22;4951;50.778;7.196;2023-11-19T04:15:11;11.10;99.90
9824;DHT22;4951;50.778;7.196;2023-11-19T04:17:45;11.10;99.90
9824;DHT22;4951;50.778;7.196;2023-11-19T04:20:16;11.10;99.90
9824;DHT22;4951;50.778;7.196;2023-11-19T04:22:47;11.10;99.90
9824;DHT22;4951;50.778;7.196;2023-11-19T04:25:21;11.20;99.90
9824;DHT22;4951;50.778;7.196;2023-11-19T04:27:56;11.20;99.90
9824;DHT22;4951;50.778;7.196;2023-11-19T04:30:27;11.20;99.90
9824;DHT22;4951;50.778;7.196;2023-11-19T04:33:02;11.20;99.90
9824;DHT22;4951;50.778;7.196;2023-11-19T04:36:02;11.20;99.90
9824;DHT22;4951;50.778;7.196;2023-11-19T04:38:45;11.20;99.90
9824;DHT22;4951;50.778;7.196;2023-11-19T04:41:34;11.20;99.90
9824;DHT22;4951;50.778;7.196;2023-11-19T04:44:09;11.10;99.90
9824;DHT22;4951;50.778;7.196;2023-11-19T04:46:42;11.20;99.90
9824;DHT22;4951;50.778;7.196;2023-11-19T04:49:26;11.20;99.90
9824;DHT22;4951;50.778;7.196;2023-11-19T04:51:57;11.20;99.90
9824;DHT22;4951;50.778;7.196;2023-11-19T04:54:28;11.20;99.90
9824;DHT22;4951;50.778;7.196;2023-11-19T04:56:56;11.20;99.90
9824;DHT22;4951;50.778;7.196;2023-11-19T04:59:26;11.20;99.90
9824;DHT22;4951;50.778;7.196;2023-11-19T05:02:04;11.20;99.90
9824;DHT22;4951;50.778;7.196;2023-11-19T05:04:44;11.40;99.90
9824;DHT22;4951;50.778;7.196;2023-11-19T05:07:16;11.50;99.90
9824;DHT22;4951;50.778;7.196;2023-11-19T05:09:47;11.60;99.90
9824;DHT22;4951;50.778;7.196;2023-11-19T05:12:20;11.70;99.90
9824;DHT22;4951;50.778;7.196;2023-11-19T05:14:59;11.80;99.90
9824;DHT22;4951;50.778;7.196;2023-11-19T05:17:33;11.90;99.90
9824;DHT22;4951;50.778;7.196;2023-11-19T05:20:10;11.90;97.20
9824;DHT22;4951;50.778;7.196;2023-11-19T05:22:51;11.90;61.20
9824;DHT22;4951;50.778;7.196;2023-11-19T05:25:20;11.80;40.00
9824;DHT22;4951;50.778;7.196;2023-11-19T05:27:55;11.70;25.90
9824;DHT22;4951;50.778;7.196;2023-11-19T05:30:33;11.60;13.60
9824;DHT22;4951;50.778;7.196;2023-11-19T05:33:13;11.50;1.00
9824;DHT22;4951;50.778;7.196;2023-11-19T05:36:06;11.40;1.00
9824;DHT22;4951;50.778;7.196;2023-11-19T05:38:55;11.30;1.00
9824;DHT22;4951;50.778;7.196;2023-11-19T05:41:40;11.20;1.00
9824;DHT22;4951;50.778;7.196;2023-11-19T05:44:11;11.10;1.00
9824;DHT22;4951;50.778;7.196;2023-11-19T05:46:56;11.00;1.00
9824;DHT22;4951;50.778;7.196;2023-11-19T05:49:27;10.90;1.00
9824;DHT22;4951;50.778;7.196;2023-11-19T05:52:00;10.90;1.00
9824;DHT22;4951;50.778;7.196;2023-11-19T05:54:30;10.80;1.00
9824;DHT22;4951;50.778;7.196;2023-11-19T05:57:05;10.80;1.00
9824;DHT22;4951;50.778;7.196;2023-11-19T05:59:36;10.80;1.00
9824;DHT22;4951;50.778;7.196;2023-11-19T06:02:06;10.90;9.30
9824;DHT22;4951;50.778;7.196;2023-11-19T06:04:40;11.00;12.90
9824;DHT22;4951;50.778;7.196;2023-11-19T06:07:14;11.10;7.40
9824;DHT22;4951;50.778;7.196;2023-11-19T06:09:43;11.10;3.30
9824;DHT22;4951;50.778;7.196;2023-11-19T06:12:14;11.10;3.30
9824;DHT22;4951;50.778;7.196;2023-11-19T06:14:42;11.20;1.60
9824;DHT22;4951;50.778;7.196;2023-11-19T06:17:13;11.20;1.00
9824;DHT22;4951;50.778;7.196;2023-11-19T06:19:43;11.20;1.00
9824;DHT22;4951;50.778;7.196;2023-11-19T06:22:17;11.20;1.00
9824;DHT22;4951;50.778;7.196;2023-11-19T06:24:48;11.30;1.00
9824;DHT22;4951;50.778;7.196;2023-11-19T06:27:18;11.30;1.00
9824;DHT22;4951;50.778;7.196;2023-11-19T06:29:56;11.40;1.00
9824;DHT22;4951;50.778;7.196;2023-11-19T06:32:25;11.50;1.00
9824;DHT22;4951;50.778;7.196;2023-11-19T06:34:53;11.50;1.00
9824;DHT22;4951;50.778;7.196;2023-11-19T06:37:29;11.50;1.00
9824;DHT22;4951;50.778;7.196;2023-11-19T06:40:04;11.60;1.00
9824;DHT22;4951;50.778;7.196;2023-11-19T06:42:37;11.60;1.00
9824;DHT22;4951;50.778;7.196;2023-11-19T06:45:09;11.60;1.00
9824;DHT22;4951;50.778;7.196;2023-11-19T06:47:38;11.60;1.00
9824;DHT22;4951;50.778;7.196;2023-11-19T06:50:08;11.60;1.00
9824;DHT22;4951;50.778;7.196;2023-11-19T06:52:49;11.50;1.00
9824;DHT22;4951;50.778;7.196;2023-11-19T06:55:20;11.60;1.00
9824;DHT22;4951;50.778;7.196;2023-11-19T06:57:49;11.50;1.00
9824;DHT22;4951;50.778;7.196;2023-11-19T07:00:20;11.50;1.00
9824;DHT22;4951;50.778;7.196;2023-11-19T07:02:49;11.50;1.00
9824;DHT22;4951;50.778;7.196;2023-11-19T07:05:19;11.40;1.00
9824;DHT22;4951;50.778;7.196;2023-11-19T07:07:49;11.40;1.00
9824;DHT22;4951;50.778;7.196;2023-11-19T07:10:21;11.30;1.00
9824;DHT22;4951;50.778;7.196;2023-11-19T07:12:51;11.20;1.00
9824;DHT22;4951;50.778;7.196;2023-11-19T07:15:20;11.20;1.00
9824;DHT22;4951;50.778;7.196;2023-11-19T07:17:56;11.10;1.00
9824;DHT22;4951;50.778;7.196;2023-11-19T07:20:26;11.00;1.00
9824;DHT22;4951;50.778;7.196;2023-11-19T07:23:07;10.90;1.00
9824;DHT22;4951;50.778;7.196;2023-11-19T07:25:35;10.90;1.00
9824;DHT22;4951;50.778;7.196;2023-11-19T07:28:10;10.80;1.00
9824;DHT22;4951;50.778;7.196;2023-11-19T07:30:41;10.80;1.00
9824;DHT22;4951;50.778;7.196;2023-11-19T07:33:09;10.80;1.00
9824;DHT22;4951;50.778;7.196;2023-11-19T07:35:38;10.70;1.00
9824;DHT22;4951;50.778;7.196;2023-11-19T07:38:14;10.70;1.00
9824;DHT22;4951;50.778;7.196;2023-11-19T07:40:44;10.70;1.00
9824;DHT22;4951;50.778;7.196;2023-11-19T07:43:14;10.70;1.00
9824;DHT22;4951;50.778;7.196;2023-11-19T07:45:45;10.80;1.00
9824;DHT22;4951;50.778;7.196;2023-11-19T07:48:21;10.90;1.00
9824;DHT22;4951;50.778;7.196;2023-11-19T07:50:53;11.10;1.00
9824;DHT22;4951;50.778;7.196;2023-11-19T07:53:23;11.20;1.00
9824;DHT22;4951;50.778;7.196;2023-11-19T07:55:51;11.30;1.00
9824;DHT22;4951;50.778;7.196;2023-11-19T07:58:24;11.40;1.00
9824;DHT22;4951;50.778;7.196;2023-11-19T08:00:54;11.50;1.00
9824;DHT22;4951;50.778;7.196;2023-11-19T08:03:23;11.50;1.00
9824;DHT22;4951;50.778;7.196;2023-11-19T08:05:58;11.50;1.00
9824;DHT22;4951;50.778;7.196;2023-11-19T08:08:31;11.60;1.00
9824;DHT22;4951;50.778;7.196;2023-11-19T08:11:02;11.60;1.00
9824;DHT22;4951;50.778;7.196;2023-11-19T08:13:39;11.70;1.00
9824;DHT22;4951;50.778;7.196;2023-11-19T08:16:18;11.80;1.00
9824;DHT22;4951;50.778;7.196;2023-11-19T08:18:51;11.80;1.00
9824;DHT22;4951;50.778;7.196;2023-11-19T08:21:28;11.90;1.00
9824;DHT22;4951;50.778;7.196;2023-11-19T08:24:03;11.90;1.00
9824;DHT22;4951;50.778;7.196;2023-11-19T08:26:39;11.90;1.00
9824;DHT22;4951;50.778;7.196;2023-11-19T08:29:13;11.90;1.00
9824;DHT22;4951;50.778;7.196;2023-11-19T08:31:43;11.90;1.00
9824;DHT22;4951;50.778;7.196;2023-11-19T08:34:20;11.90;1.00
9824;DHT22;4951;50.778;7.196;2023-11-19T08:37:13;11.90;1.00
9824;DHT22;4951;50.778;7.196;2023-11-19T08:40:24;12.00;99.90
9824;DHT22;4951;50.778;7.196;2023-11-19T08:43:00;12.10;99.90
9824;DHT22;4951;50.778;7.196;2023-11-19T08:45:45;12.10;99.90
9824;DHT22;4951;50.778;7.196;2023-11-19T08:48:20;12.20;99.90
9824;DHT22;4951;50.778;7.196;2023-11-19T08:50:59;12.20;16.90
9824;DHT22;4951;50.778;7.196;2023-11-19T08:53:30;12.20;1.00
9824;DHT22;4951;50.778;7.196;2023-11-19T08:56:04;12.20;1.00
9824;DHT22;4951;50.778;7.196;2023-11-19T08:58:46;12.20;1.00
9824;DHT22;4951;50.778;7.196;2023-11-19T09:04:56;12.20;1.00
9824;DHT22;4951;50.778;7.196;2023-11-19T09:07:38;12.30;1.00
9824;DHT22;4951;50.778;7.196;2023-11-19T09:12:57;12.20;1.00
9824;DHT22;4951;50.778;7.196;2023-11-19T09:15:50;12.30;1.00
9824;DHT22;4951;50.778;7.196;2023-11-19T09:19:33;12.40;99.90
9824;DHT22;4951;50.778;7.196;2023-11-19T09:22:42;12.50;1.00
9824;DHT22;4951;50.778;7.196;2023-11-19T09:32:57;13.00;1.00
9824;DHT22;4951;50.778;7.196;2023-11-19T09:40:01;13.00;99.90
9824;DHT22;4951;50.778;7.196;2023-11-19T09:43:07;13.10;1.00
9824;DHT22;4951;50.778;7.196;2023-11-19T09:46:01;13.20;1.00
9824;DHT22;4951;50.778;7.196;2023-11-19T09:48:42;13.40;1.00
9824;DHT22;4951;50.778;7.196;2023-11-19T09:51:24;13.50;1.00
9824;DHT22;4951;50.778;7.196;2023-11-19T09:53:55;13.60;99.90
9824;DHT22;4951;50.778;7.196;2023-11-19T09:56:28;13.70;1.00
9824;DHT22;4951;50.778;7.196;2023-11-19T09:58:59;13.90;1.00
9824;DHT22;4951;50.778;7.196;2023-11-19T10:01:26;14.10;1.00
9824;DHT22;4951;50.778;7.196;2023-11-19T10:03:56;14.10;64.00
9824;DHT22;4951;50.778;7.196;2023-11-19T10:06:25;14.20;1.00
9824;DHT22;4951;50.778;7.196;2023-11-19T10:08:55;14.20;99.90
9824;DHT22;4951;50.778;7.196;2023-11-19T10:11:27;14.20;99.90
9824;DHT22;4951;50.778;7.196;2023-11-19T10:14:01;14.20;1.00
9824;DHT22;4951;50.778;7.196;2023-11-19T10:16:34;14.30;1.00
9824;DHT22;4951;50.778;7.196;2023-11-19T10:19:03;14.30;99.90
9824;DHT22;4951;50.778;7.196;2023-11-19T10:21:33;14.30;1.00
9824;DHT22;4951;50.778;7.196;2023-11-19T10:24:01;14.50;83.70
9824;DHT22;4951;50.778;7.196;2023-11-19T10:26:31;14.50;99.90
9824;DHT22;4951;50.778;7.196;2023-11-19T10:29:15;14.60;99.90
9824;DHT22;4951;50.778;7.196;2023-11-19T10:36:06;14.70;1.00
9824;DHT22;4951;50.778;7.196;2023-11-19T10:38:55;14.70;99.90
9824;DHT22;4951;50.778;7.196;2023-11-19T10:41:59;14.80;1.00
9824;DHT22;4951;50.778;7.196;2023-11-19T10:46:09;14.80;1.00
9824;DHT22;4951;50.778;7.196;2023-11-19T10:50:09;14.70;1.00
9824;DHT22;4951;50.778;7.196;2023-11-19T10:53:02;14.60;99.90
9824;DHT22;4951;50.778;7.196;2023-11-19T10:55:56;14.70;1.00
9824;DHT22;4951;50.778;7.196;2023-11-19T10:58:56;14.80;1.00
9824;DHT22;4951;50.778;7.196;2023-11-19T11:06:21;14.90;3.00
9824;DHT22;4951;50.778;7.196;2023-11-19T11:09:30;15.00;1.00
9824;DHT22;4951;50.778;7.196;2023-11-19T11:12:42;15.20;99.90
9824;DHT22;4951;50.778;7.196;2023-11-19T11:15:30;15.20;1.00
9824;DHT22;4951;50.778;7.196;2023-11-19T11:18:13;15.20;99.90
9824;DHT22;4951;50.778;7.196;2023-11-19T11:24:33;14.90;99.90
9824;DHT22;4951;50.778;7.196;2023-11-19T11:27:54;14.70;1.00
9824;DHT22;4951;50.778;7.196;2023-11-19T11:42:49;14.20;1.00
9824;DHT22;4951;50.778;7.196;2023-11-19T11:45:48;14.10;1.00
9824;DHT22;4951;50.778;7.196;2023-11-19T11:48:28;14.10;1.00
9824;DHT22;4951;50.778;7.196;2023-11-19T11:52:58;13.90;1.00
9824;DHT22;4951;50.778;7.196;2023-11-19T11:55:12;13.50;1.00
9824;DHT22;4951;50.778;7.196;2023-11-19T11:57:43;13.10;1.00
9824;DHT22;4951;50.778;7.196;2023-11-19T12:00:22;12.70;1.00
9824;DHT22;4951;50.778;7.196;2023-11-19T12:02:56;12.40;1.00
9824;DHT22;4951;50.778;7.196;2023-11-19T12:05:59;12.30;99.90
9824;DHT22;4951;50.778;7.196;2023-11-19T12:08:35;12.20;1.00
9824;DHT22;4951;50.778;7.196;2023-11-19T12:11:08;12.20;21.30
9824;DHT22;4951;50.778;7.196;2023-11-19T12:13:54;12.30;99.90
9824;DHT22;4951;50.778;7.196;2023-11-19T12:16:33;12.50;99.90
9824;DHT22;4951;50.778;7.196;2023-11-19T12:19:09;12.80;99.90
9824;DHT22;4951;50.778;7.196;2023-11-19T12:21:38;13.10;1.00
9824;DHT22;4951;50.778;7.196;2023-11-19T12:24:07;13.20;1.00
9824;DHT22;4951;50.778;7.196;2023-11-19T12:26:37;13.20;99.90
9824;DHT22;4951;50.778;7.196;2023-11-19T12:29:08;13.30;1.00
9824;DHT22;4951;50.778;7.196;2023-11-19T12:31:37;13.30;1.00
9824;DHT22;4951;50.778;7.196;2023-11-19T12:34:08;13.30;1.00
9824;DHT22;4951;50.778;7.196;2023-11-19T12:36:40;13.30;1.00
9824;DHT22;4951;50.778;7.196;2023-11-19T12:39:11;13.40;99.90
9824;DHT22;4951;50.778;7.196;2023-11-19T12:41:54;13.40;99.90
9824;DHT22;4951;50.778;7.196;2023-11-19T12:44:30;13.50;99.90
9824;DHT22;4951;50.778;7.196;2023-11-19T12:47:12;13.50;1.00
9824;DHT22;4951;50.778;7.196;2023-11-19T12:50:08;13.50;1.00
9824;DHT22;4951;50.778;7.196;2023-11-19T12:52:57;13.50;99.90
9824;DHT22;4951;50.778;7.196;2023-11-19T12:55:28;13.50;99.90
9824;DHT22;4951;50.778;7.196;2023-11-19T12:58:29;13.50;1.00
9824;DHT22;4951;50.778;7.196;2023-11-19T13:01:16;13.50;1.00
9824;DHT22;4951;50.778;7.196;2023-11-19T13:17:38;13.50;1.00
9824;DHT22;4951;50.778;7.196;2023-11-19T13:20:11;13.60;41.00
9824;DHT22;4951;50.778;7.196;2023-11-19T13:23:11;13.60;1.00
9824;DHT22;4951;50.778;7.196;2023-11-19T13:25:41;13.70;7.40
9824;DHT22;4951;50.778;7.196;2023-11-19T13:28:09;13.80;99.90
9824;DHT22;4951;50.778;7.196;2023-11-19T13:30:38;14.10;99.90
9824;DHT22;4951;50.778;7.196;2023-11-19T13:33:16;14.20;13.50
9824;DHT22;4951;50.778;7.196;2023-11-19T13:35:50;14.50;1.00
9824;DHT22;4951;50.778;7.196;2023-11-19T13:39:02;14.60;99.90
9824;DHT22;4951;50.778;7.196;2023-11-19T13:41:35;14.80;1.00
9824;DHT22;4951;50.778;7.196;2023-11-19T13:44:09;14.80;1.00
9824;DHT22;4951;50.778;7.196;2023-11-19T13:46:41;14.80;99.90
9824;DHT22;4951;50.778;7.196;2023-11-19T13:49:24;14.60;1.00
9824;DHT22;4951;50.778;7.196;2023-11-19T13:51:57;14.40;1.00
9824;DHT22;4951;50.778;7.196;2023-11-19T13:54:43;14.20;99.90
9824;DHT22;4951;50.778;7.196;2023-11-19T13:57:19;14.10;1.00
9824;DHT22;4951;50.778;7.196;2023-11-19T13:59:52;14.00;99.90
9824;DHT22;4951;50.778;7.196;2023-11-19T14:02:27;14.10;1.00
9824;DHT22;4951;50.778;7.196;2023-11-19T14:04:57;14.30;99.90
9824;DHT22;4951;50.778;7.196;2023-11-19T14:07:25;14.60;99.90
9824;DHT22;4951;50.778;7.196;2023-11-19T14:09:58;14.70;1.00
9824;DHT22;4951;50.778;7.196;2023-11-19T14:12:28;14.80;99.90
9824;DHT22;4951;50.778;7.196;2023-11-19T14:15:10;14.90;1.00
9824;DHT22;4951;50.778;7.196;2023-11-19T14:17:49;14.80;1.00
9824;DHT22;4951;50.778;7.196;2023-11-19T14:20:41;14.90;1.00
9824;DHT22;4951;50.778;7.196;2023-11-19T14:23:28;15.00;1.00
9824;DHT22;4951;50.778;7.196;2023-11-19T14:26:01;15.10;1.00
9824;DHT22;4951;50.778;7.196;2023-11-19T14:28:37;15.20;1.00
9824;DHT22;4951;50.778;7.196;2023-11-19T14:31:27;15.10;1.00
9824;DHT22;4951;50.778;7.196;2023-11-19T14:33:59;15.00;1.00
9824;DHT22;4951;50.778;7.196;2023-11-19T14:36:37;14.70;99.90
9824;DHT22;4951;50.778;7.196;2023-11-19T14:39:18;14.50;1.00
9824;DHT22;4951;50.778;7.196;2023-11-19T14:41:51;14.40;94.40
9824;DHT22;4951;50.778;7.196;2023-11-19T14:44:37;14.30;99.90
9824;DHT22;4951;50.778;7.196;2023-11-19T14:47:24;14.20;1.00
9824;DHT22;4951;50.778;7.196;2023-11-19T14:50:08;14.10;1.00
9824;DHT22;4951;50.778;7.196;2023-11-19T14:52:42;14.10;1.00
9824;DHT22;4951;50.778;7.196;2023-11-19T14:55:15;14.00;1.00
9824;DHT22;4951;50.778;7.196;2023-11-19T14:57:45;14.00;1.00
9824;DHT22;4951;50.778;7.196;2023-11-19T15:00:25;14.00;99.90
9824;DHT22;4951;50.778;7.196;2023-11-19T15:03:48;14.00;99.90
9824;DHT22;4951;50.778;7.196;2023-11-19T15:09:09;13.80;99.90
9824;DHT22;4951;50.778;7.196;2023-11-19T15:12:36;13.80;99.90
9824;DHT22;4951;50.778;7.196;2023-11-19T15:15:20;13.70;1.00
9824;DHT22;4951;50.778;7.196;2023-11-19T15:18:11;13.60;1.00
9824;DHT22;4951;50.778;7.196;2023-11-19T15:21:03;13.50;99.90
9824;DHT22;4951;50.778;7.196;2023-11-19T15:24:16;13.40;1.00
9824;DHT22;4951;50.778;7.196;2023-11-19T15:27:28;13.30;1.00
9824;DHT22;4951;50.778;7.196;2023-11-19T15:30:32;13.20;99.90
9824;DHT22;4951;50.778;7.196;2023-11-19T15:33:28;13.10;99.90
9824;DHT22;4951;50.778;7.196;2023-11-19T15:43:12;12.80;86.90
9824;DHT22;4951;50.778;7.196;2023-11-19T15:46:51;12.80;99.90
9824;DHT22;4951;50.778;7.196;2023-11-19T15:50:21;12.70;1.00
9824;DHT22;4951;50.778;7.196;2023-11-19T15:53:35;12.70;1.00
9824;DHT22;4951;50.778;7.196;2023-11-19T15:56:57;12.70;1.00
9824;DHT22;4951;50.778;7.196;2023-11-19T15:59:59;12.80;1.00
9824;DHT22;4951;50.778;7.196;2023-11-19T16:02:50;12.80;1.00
9824;DHT22;4951;50.778;7.196;2023-11-19T16:05:33;12.80;1.00
9824;DHT22;4951;50.778;7.196;2023-11-19T16:08:04;12.70;1.00
9824;DHT22;4951;50.778;7.196;2023-11-19T16:10:46;12.70;1.00
9824;DHT22;4951;50.778;7.196;2023-11-19T16:13:35;12.70;1.00
9824;DHT22;4951;50.778;7.196;2023-11-19T16:16:31;12.60;1.00
9824;DHT22;4951;50.778;7.196;2023-11-19T16:19:01;12.60;1.00
9824;DHT22;4951;50.778;7.196;2023-11-19T16:21:48;12.50;1.00
9824;DHT22;4951;50.778;7.196;2023-11-19T16:24:31;12.40;1.00
9824;DHT22;4951;50.778;7.196;2023-11-19T16:27:12;12.40;1.00
9824;DHT22;4951;50.778;7.196;2023-11-19T16:29:52;12.30;1.00
9824;DHT22;4951;50.778;7.196;2023-11-19T16:32:27;12.20;99.90
9824;DHT22;4951;50.778;7.196;2023-11-19T16:35:18;12.20;99.90
9824;DHT22;4951;50.778;7.196;2023-11-19T16:38:04;12.20;1.00
9824;DHT22;4951;50.778;7.196;2023-11-19T16:40:45;12.20;99.90
9824;DHT22;4951;50.778;7.196;2023-11-19T16:43:44;12.30;99.90
9824;DHT22;4951;50.778;7.196;2023-11-19T16:46:18;12.30;99.90
9824;DHT22;4951;50.778;7.196;2023-11-19T16:48:46;12.30;99.90
9824;DHT22;4951;50.778;7.196;2023-11-19T16:51:17;12.30;1.00
9824;DHT22;4951;50.778;7.196;2023-11-19T16:53:48;12.40;1.00
9824;DHT22;4951;50.778;7.196;2023-11-19T16:56:25;12.40;1.00
9824;DHT22;4951;50.778;7.196;2023-11-19T16:59:00;12.40;1.00
9824;DHT22;4951;50.778;7.196;2023-11-19T17:01:31;12.50;1.00
9824;DHT22;4951;50.778;7.196;2023-11-19T17:04:04;12.50;1.00
9824;DHT22;4951;50.778;7.196;2023-11-19T17:06:54;12.50;12.50
9824;DHT22;4951;50.778;7.196;2023-11-19T17:09:28;12.60;1.00
9824;DHT22;4951;50.778;7.196;2023-11-19T17:11:59;12.60;1.00
9824;DHT22;4951;50.778;7.196;2023-11-19T17:14:38;12.70;1.00
9824;DHT22;4951;50.778;7.196;2023-11-19T17:17:19;12.70;1.00
9824;DHT22;4951;50.778;7.196;2023-11-19T17:19:58;12.70;1.00
9824;DHT22;4951;50.778;7.196;2023-11-19T17:22:32;12.70;99.90
9824;DHT22;4951;50.778;7.196;2023-11-19T17:25:06;12.70;99.90
9824;DHT22;4951;50.778;7.196;2023-11-19T17:27:37;12.60;99.90
9824;DHT22;4951;50.778;7.196;2023-11-19T17:33:25;12.60;99.90
9824;DHT22;4951;50.778;7.196;2023-11-19T17:36:05;12.60;99.90
9824;DHT22;4951;50.778;7.196;2023-11-19T17:38:42;12.60;99.90
9824;DHT22;4951;50.778;7.196;2023-11-19T17:41:43;12.60;1.00
9824;DHT22;4951;50.778;7.196;2023-11-19T17:44:21;12.50;99.90
9824;DHT22;4951;50.778;7.196;2023-11-19T17:46:58;12.60;99.90
9824;DHT22;4951;50.778;7.196;2023-11-19T17:49:39;12.60;99.90
9824;DHT22;4951;50.778;7.196;2023-11-19T17:55:42;12.60;1.00
9824;DHT22;4951;50.778;7.196;2023-11-19T17:58:45;12.60;1.00
9824;DHT22;4951;50.778;7.196;2023-11-19T18:01:42;12.60;1.00
9824;DHT22;4951;50.778;7.196;2023-11-19T18:07:34;12.60;1.00
9824;DHT22;4951;50.778;7.196;2023-11-19T18:10:19;12.60;1.00
9824;DHT22;4951;50.778;7.196;2023-11-19T18:12:53;12.60;1.00
9824;DHT22;4951;50.778;7.196;2023-11-19T18:16:08;12.70;1.00
9824;DHT22;4951;50.778;7.196;2023-11-19T18:21:50;12.60;1.00
9824;DHT22;4951;50.778;7.196;2023-11-19T18:24:48;12.60;93.20
9824;DHT22;4951;50.778;7.196;2023-11-19T18:27:37;12.60;1.00
9824;DHT22;4951;50.778;7.196;2023-11-19T18:30:16;12.60;1.00
9824;DHT22;4951;50.778;7.196;2023-11-19T18:33:28;12.70;1.00
9824;DHT22;4951;50.778;7.196;2023-11-19T18:35:57;12.70;1.00
9824;DHT22;4951;50.778;7.196;2023-11-19T18:38:36;12.70;1.00
9824;DHT22;4951;50.778;7.196;2023-11-19T18:41:37;12.70;1.00
9824;DHT22;4951;50.778;7.196;2023-11-19T18:44:09;12.70;1.00
9824;DHT22;4951;50.778;7.196;2023-11-19T18:47:11;12.70;1.00
9824;DHT22;4951;50.778;7.196;2023-11-19T18:50:33;12.70;70.60
9824;DHT22;4951;50.778;7.196;2023-11-19T18:53:40;12.70;99.90
9824;DHT22;4951;50.778;7.196;2023-11-19T18:59:46;12.70;1.00
9824;DHT22;4951;50.778;7.196;2023-11-19T19:02:39;12.70;1.00
9824;DHT22;4951;50.778;7.196;2023-11-19T19:05:16;12.70;1.00
9824;DHT22;4951;50.778;7.196;2023-11-19T19:08:07;12.70;1.00
9824;DHT22;4951;50.778;7.196;2023-11-19T19:11:40;12.70;64.30
9824;DHT22;4951;50.778;7.196;2023-11-19T19:14:14;12.70;99.90